sensor_id;sensor_type;location;lat;lon;timestamp;P1;durP1;ratioP1;P2;durP2;ratioP2
11548;SDS011;61444;59.472;18.306;2022-08-19T00:00:27;59.43;;;27.93;;
11548;SDS011;61444;59.472;18.306;2022-08-19T00:02:36;55.37;;;28.70;;
11548;SDS011;61444;59.472;18.306;2022-08-19T00:04:55;52.73;;;28.60;;
11548;SDS011;61444;59.472;18.306;2022-08-19T00:07:04;57.87;;;29.40;;
11548;SDS011;61444;59.472;18.306;2022-08-19T00:09:14;58.80;;;30.20;;
11548;SDS011;61444;59.472;18.306;2022-08-19T00:11:23;54.73;;;28.70;;
11548;SDS011;61444;59.472;18.306;2022-08-19T00:13:33;56.70;;;30.33;;
11548;SDS011;61444;59.472;18.306;2022-08-19T00:15:44;61.03;;;30.53;;
11548;SDS011;61444;59.472;18.306;2022-08-19T00:17:52;57.07;;;30.10;;
11548;SDS011;61444;59.472;18.306;2022-08-19T00:20:02;53.80;;;30.50;;
11548;SDS011;61444;59.472;18.306;2022-08-19T00:22:11;56.73;;;30.67;;
11548;SDS011;61444;59.472;18.306;2022-08-19T00:24:19;57.17;;;32.20;;
11548;SDS011;61444;59.472;18.306;2022-08-19T00:26:28;58.50;;;32.70;;
11548;SDS011;61444;59.472;18.306;2022-08-19T00:28:36;61.13;;;32.77;;
11548;SDS011;61444;59.472;18.306;2022-08-19T00:30:46;60.60;;;33.57;;
11548;SDS011;61444;59.472;18.306;2022-08-19T00:32:55;61.97;;;32.17;;
11548;SDS011;61444;59.472;18.306;2022-08-19T00:35:04;61.70;;;33.17;;
11548;SDS011;61444;59.472;18.306;2022-08-19T00:37:12;60.30;;;31.33;;
11548;SDS011;61444;59.472;18.306;2022-08-19T00:39:21;56.27;;;32.37;;
11548;SDS011;61444;59.472;18.306;2022-08-19T00:41:30;51.70;;;31.97;;
11548;SDS011;61444;59.472;18.306;2022-08-19T00:43:38;47.13;;;29.77;;
11548;SDS011;61444;59.472;18.306;2022-08-19T00:45:49;50.03;;;31.47;;
11548;SDS011;61444;59.472;18.306;2022-08-19T00:47:58;50.93;;;30.97;;
11548;SDS011;61444;59.472;18.306;2022-08-19T00:50:10;51.33;;;30.43;;
11548;SDS011;61444;59.472;18.306;2022-08-19T00:52:22;47.70;;;29.90;;
11548;SDS011;61444;59.472;18.306;2022-08-19T00:54:35;47.07;;;29.27;;
11548;SDS011;61444;59.472;18.306;2022-08-19T00:56:44;46.00;;;28.47;;
11548;SDS011;61444;59.472;18.306;2022-08-19T00:58:53;45.63;;;28.57;;
11548;SDS011;61444;59.472;18.306;2022-08-19T01:01:04;47.53;;;29.20;;
11548;SDS011;61444;59.472;18.306;2022-08-19T01:03:15;40.93;;;28.10;;
11548;SDS011;61444;59.472;18.306;2022-08-19T01:05:25;44.53;;;28.60;;
11548;SDS011;61444;59.472;18.306;2022-08-19T01:07:35;40.93;;;28.57;;
11548;SDS011;61444;59.472;18.306;2022-08-19T01:09:45;37.20;;;26.77;;
11548;SDS011;61444;59.472;18.306;2022-08-19T01:11:54;43.77;;;28.03;;
11548;SDS011;61444;59.472;18.306;2022-08-19T01:14:03;40.77;;;28.23;;
11548;SDS011;61444;59.472;18.306;2022-08-19T01:16:13;40.70;;;26.23;;
11548;SDS011;61444;59.472;18.306;2022-08-19T01:18:22;41.10;;;27.70;;
11548;SDS011;61444;59.472;18.306;2022-08-19T01:20:31;42.97;;;29.07;;
11548;SDS011;61444;59.472;18.306;2022-08-19T01:22:43;42.17;;;28.87;;
11548;SDS011;61444;59.472;18.306;2022-08-19T01:24:52;43.03;;;27.87;;
11548;SDS011;61444;59.472;18.306;2022-08-19T01:27:03;42.47;;;28.93;;
11548;SDS011;61444;59.472;18.306;2022-08-19T01:29:16;49.23;;;29.17;;
11548;SDS011;61444;59.472;18.306;2022-08-19T01:31:27;46.07;;;29.43;;
11548;SDS011;61444;59.472;18.306;2022-08-19T01:33:38;40.77;;;29.37;;
11548;SDS011;61444;59.472;18.306;2022-08-19T01:35:48;47.73;;;29.97;;
11548;SDS011;61444;59.472;18.306;2022-08-19T01:37:59;44.07;;;29.43;;
11548;SDS011;61444;59.472;18.306;2022-08-19T01:40:09;43.83;;;29.60;;
11548;SDS011;61444;59.472;18.306;2022-08-19T01:42:18;45.60;;;28.50;;
11548;SDS011;61444;59.472;18.306;2022-08-19T01:44:35;45.23;;;29.73;;
11548;SDS011;61444;59.472;18.306;2022-08-19T01:46:44;42.80;;;28.43;;
11548;SDS011;61444;59.472;18.306;2022-08-19T01:48:53;42.77;;;30.10;;
11548;SDS011;61444;59.472;18.306;2022-08-19T01:51:02;47.00;;;30.00;;
11548;SDS011;61444;59.472;18.306;2022-08-19T01:53:12;47.07;;;28.50;;
11548;SDS011;61444;59.472;18.306;2022-08-19T01:55:21;43.47;;;28.03;;
11548;SDS011;61444;59.472;18.306;2022-08-19T01:57:32;41.73;;;29.27;;
11548;SDS011;61444;59.472;18.306;2022-08-19T01:59:41;45.10;;;29.10;;
11548;SDS011;61444;59.472;18.306;2022-08-19T02:01:50;47.63;;;30.73;;
11548;SDS011;61444;59.472;18.306;2022-08-19T02:03:59;43.10;;;28.73;;
11548;SDS011;61444;59.472;18.306;2022-08-19T02:06:08;49.77;;;30.13;;
11548;SDS011;61444;59.472;18.306;2022-08-19T02:08:18;44.87;;;28.33;;
11548;SDS011;61444;59.472;18.306;2022-08-19T02:10:26;48.83;;;30.10;;
11548;SDS011;61444;59.472;18.306;2022-08-19T02:12:35;50.90;;;31.53;;
11548;SDS011;61444;59.472;18.306;2022-08-19T02:14:43;50.07;;;30.70;;
11548;SDS011;61444;59.472;18.306;2022-08-19T02:16:52;50.00;;;30.83;;
11548;SDS011;61444;59.472;18.306;2022-08-19T02:19:00;49.37;;;30.50;;
11548;SDS011;61444;59.472;18.306;2022-08-19T02:21:09;48.90;;;30.40;;
11548;SDS011;61444;59.472;18.306;2022-08-19T02:23:20;41.13;;;28.77;;
11548;SDS011;61444;59.472;18.306;2022-08-19T02:25:29;45.20;;;28.73;;
11548;SDS011;61444;59.472;18.306;2022-08-19T02:27:37;43.53;;;29.50;;
11548;SDS011;61444;59.472;18.306;2022-08-19T02:29:46;46.83;;;31.37;;
11548;SDS011;61444;59.472;18.306;2022-08-19T02:31:55;49.00;;;29.33;;
11548;SDS011;61444;59.472;18.306;2022-08-19T02:34:04;46.13;;;30.93;;
11548;SDS011;61444;59.472;18.306;2022-08-19T02:36:13;43.47;;;28.60;;
11548;SDS011;61444;59.472;18.306;2022-08-19T02:38:27;43.33;;;28.97;;
11548;SDS011;61444;59.472;18.306;2022-08-19T02:40:35;46.83;;;27.80;;
11548;SDS011;61444;59.472;18.306;2022-08-19T02:42:43;47.70;;;30.87;;
11548;SDS011;61444;59.472;18.306;2022-08-19T02:44:52;44.23;;;28.90;;
11548;SDS011;61444;59.472;18.306;2022-08-19T02:47:03;47.30;;;28.80;;
11548;SDS011;61444;59.472;18.306;2022-08-19T02:49:12;48.87;;;32.30;;
11548;SDS011;61444;59.472;18.306;2022-08-19T02:51:23;46.13;;;29.73;;
11548;SDS011;61444;59.472;18.306;2022-08-19T02:53:33;45.53;;;28.67;;
11548;SDS011;61444;59.472;18.306;2022-08-19T02:55:42;46.40;;;28.53;;
11548;SDS011;61444;59.472;18.306;2022-08-19T02:57:52;46.20;;;29.50;;
11548;SDS011;61444;59.472;18.306;2022-08-19T03:00:00;46.07;;;27.80;;
11548;SDS011;61444;59.472;18.306;2022-08-19T03:02:11;42.77;;;28.40;;
11548;SDS011;61444;59.472;18.306;2022-08-19T03:04:20;45.97;;;28.37;;
11548;SDS011;61444;59.472;18.306;2022-08-19T03:06:29;43.80;;;29.20;;
11548;SDS011;61444;59.472;18.306;2022-08-19T03:08:41;49.10;;;30.23;;
11548;SDS011;61444;59.472;18.306;2022-08-19T03:10:50;45.50;;;28.13;;
11548;SDS011;61444;59.472;18.306;2022-08-19T03:13:01;48.30;;;29.70;;
11548;SDS011;61444;59.472;18.306;2022-08-19T03:15:11;49.83;;;30.70;;
11548;SDS011;61444;59.472;18.306;2022-08-19T03:17:19;43.57;;;27.40;;
11548;SDS011;61444;59.472;18.306;2022-08-19T03:19:28;48.97;;;28.70;;
11548;SDS011;61444;59.472;18.306;2022-08-19T03:21:37;47.37;;;27.83;;
11548;SDS011;61444;59.472;18.306;2022-08-19T03:23:47;49.33;;;30.23;;
11548;SDS011;61444;59.472;18.306;2022-08-19T03:25:56;59.13;;;31.70;;
11548;SDS011;61444;59.472;18.306;2022-08-19T03:28:22;53.87;;;32.70;;
11548;SDS011;61444;59.472;18.306;2022-08-19T03:30:30;54.77;;;32.67;;
11548;SDS011;61444;59.472;18.306;2022-08-19T03:32:39;51.53;;;30.93;;
11548;SDS011;61444;59.472;18.306;2022-08-19T03:34:50;51.63;;;30.40;;
11548;SDS011;61444;59.472;18.306;2022-08-19T03:37:02;53.20;;;30.60;;
11548;SDS011;61444;59.472;18.306;2022-08-19T03:39:14;57.47;;;32.37;;
11548;SDS011;61444;59.472;18.306;2022-08-19T03:41:23;58.73;;;31.57;;
11548;SDS011;61444;59.472;18.306;2022-08-19T03:43:49;54.40;;;32.83;;
11548;SDS011;61444;59.472;18.306;2022-08-19T03:46:02;52.97;;;32.90;;
11548;SDS011;61444;59.472;18.306;2022-08-19T03:48:10;55.00;;;31.20;;
11548;SDS011;61444;59.472;18.306;2022-08-19T03:50:19;51.27;;;32.17;;
11548;SDS011;61444;59.472;18.306;2022-08-19T03:52:28;55.53;;;33.70;;
11548;SDS011;61444;59.472;18.306;2022-08-19T03:54:37;60.63;;;32.13;;
11548;SDS011;61444;59.472;18.306;2022-08-19T03:56:47;54.80;;;32.77;;
11548;SDS011;61444;59.472;18.306;2022-08-19T03:58:57;53.93;;;32.63;;
11548;SDS011;61444;59.472;18.306;2022-08-19T04:01:07;52.30;;;33.57;;
11548;SDS011;61444;59.472;18.306;2022-08-19T04:03:16;57.23;;;34.93;;
11548;SDS011;61444;59.472;18.306;2022-08-19T04:05:26;60.67;;;33.17;;
11548;SDS011;61444;59.472;18.306;2022-08-19T04:07:35;54.37;;;34.57;;
11548;SDS011;61444;59.472;18.306;2022-08-19T04:09:44;50.63;;;31.03;;
11548;SDS011;61444;59.472;18.306;2022-08-19T04:11:54;52.77;;;33.07;;
11548;SDS011;61444;59.472;18.306;2022-08-19T04:14:03;47.60;;;29.57;;
11548;SDS011;61444;59.472;18.306;2022-08-19T04:16:11;46.77;;;28.30;;
11548;SDS011;61444;59.472;18.306;2022-08-19T04:18:20;43.80;;;29.10;;
11548;SDS011;61444;59.472;18.306;2022-08-19T04:20:28;42.50;;;27.73;;
11548;SDS011;61444;59.472;18.306;2022-08-19T04:22:37;40.70;;;26.80;;
11548;SDS011;61444;59.472;18.306;2022-08-19T04:24:47;39.37;;;27.87;;
11548;SDS011;61444;59.472;18.306;2022-08-19T04:26:55;44.33;;;28.93;;
11548;SDS011;61444;59.472;18.306;2022-08-19T04:29:04;39.07;;;28.57;;
11548;SDS011;61444;59.472;18.306;2022-08-19T04:31:19;36.33;;;26.00;;
11548;SDS011;61444;59.472;18.306;2022-08-19T04:33:27;38.97;;;27.63;;
11548;SDS011;61444;59.472;18.306;2022-08-19T04:35:37;35.93;;;26.23;;
11548;SDS011;61444;59.472;18.306;2022-08-19T04:37:46;33.80;;;23.67;;
11548;SDS011;61444;59.472;18.306;2022-08-19T04:39:55;34.77;;;25.73;;
11548;SDS011;61444;59.472;18.306;2022-08-19T04:42:21;34.87;;;25.40;;
11548;SDS011;61444;59.472;18.306;2022-08-19T04:44:48;40.97;;;26.07;;
11548;SDS011;61444;59.472;18.306;2022-08-19T04:46:57;32.83;;;24.03;;
11548;SDS011;61444;59.472;18.306;2022-08-19T04:49:06;34.23;;;25.33;;
11548;SDS011;61444;59.472;18.306;2022-08-19T04:51:18;33.43;;;23.80;;
11548;SDS011;61444;59.472;18.306;2022-08-19T04:53:27;34.13;;;23.53;;
11548;SDS011;61444;59.472;18.306;2022-08-19T04:55:44;31.30;;;22.60;;
11548;SDS011;61444;59.472;18.306;2022-08-19T04:57:53;32.07;;;21.43;;
11548;SDS011;61444;59.472;18.306;2022-08-19T05:00:02;30.70;;;22.00;;
11548;SDS011;61444;59.472;18.306;2022-08-19T05:02:11;29.23;;;21.10;;
11548;SDS011;61444;59.472;18.306;2022-08-19T05:04:19;31.03;;;21.33;;
11548;SDS011;61444;59.472;18.306;2022-08-19T05:06:28;32.90;;;21.37;;
11548;SDS011;61444;59.472;18.306;2022-08-19T05:08:39;31.70;;;20.07;;
11548;SDS011;61444;59.472;18.306;2022-08-19T05:10:51;27.17;;;20.80;;
11548;SDS011;61444;59.472;18.306;2022-08-19T05:12:59;29.27;;;21.60;;
11548;SDS011;61444;59.472;18.306;2022-08-19T05:15:08;30.80;;;20.67;;
11548;SDS011;61444;59.472;18.306;2022-08-19T05:17:17;25.27;;;20.63;;
11548;SDS011;61444;59.472;18.306;2022-08-19T05:19:37;28.03;;;21.50;;
11548;SDS011;61444;59.472;18.306;2022-08-19T05:22:03;30.97;;;19.33;;
11548;SDS011;61444;59.472;18.306;2022-08-19T05:24:29;32.70;;;20.93;;
11548;SDS011;61444;59.472;18.306;2022-08-19T05:26:42;26.23;;;18.37;;
11548;SDS011;61444;59.472;18.306;2022-08-19T05:28:52;25.73;;;19.40;;
11548;SDS011;61444;59.472;18.306;2022-08-19T05:31:01;31.27;;;19.77;;
11548;SDS011;61444;59.472;18.306;2022-08-19T05:33:09;23.93;;;19.27;;
11548;SDS011;61444;59.472;18.306;2022-08-19T05:35:18;24.83;;;19.13;;
11548;SDS011;61444;59.472;18.306;2022-08-19T05:37:27;27.37;;;20.03;;
11548;SDS011;61444;59.472;18.306;2022-08-19T05:39:36;25.87;;;19.53;;
11548;SDS011;61444;59.472;18.306;2022-08-19T05:41:47;25.83;;;18.90;;
11548;SDS011;61444;59.472;18.306;2022-08-19T05:43:56;26.00;;;19.23;;
11548;SDS011;61444;59.472;18.306;2022-08-19T05:46:04;27.00;;;17.53;;
11548;SDS011;61444;59.472;18.306;2022-08-19T05:48:13;27.03;;;17.73;;
11548;SDS011;61444;59.472;18.306;2022-08-19T05:50:26;25.93;;;17.87;;
11548;SDS011;61444;59.472;18.306;2022-08-19T05:52:36;22.07;;;16.50;;
11548;SDS011;61444;59.472;18.306;2022-08-19T05:54:51;22.97;;;17.40;;
11548;SDS011;61444;59.472;18.306;2022-08-19T05:57:03;22.60;;;18.37;;
11548;SDS011;61444;59.472;18.306;2022-08-19T05:59:11;28.43;;;19.23;;
11548;SDS011;61444;59.472;18.306;2022-08-19T06:01:20;22.43;;;17.83;;
11548;SDS011;61444;59.472;18.306;2022-08-19T06:03:29;21.87;;;17.17;;
11548;SDS011;61444;59.472;18.306;2022-08-19T06:05:38;23.37;;;16.60;;
11548;SDS011;61444;59.472;18.306;2022-08-19T06:07:57;20.93;;;16.13;;
11548;SDS011;61444;59.472;18.306;2022-08-19T06:10:07;22.37;;;15.83;;
11548;SDS011;61444;59.472;18.306;2022-08-19T06:12:17;22.03;;;16.23;;
11548;SDS011;61444;59.472;18.306;2022-08-19T06:14:26;18.73;;;15.43;;
11548;SDS011;61444;59.472;18.306;2022-08-19T06:16:35;24.50;;;16.53;;
11548;SDS011;61444;59.472;18.306;2022-08-19T06:18:44;21.07;;;15.03;;
11548;SDS011;61444;59.472;18.306;2022-08-19T06:20:53;19.50;;;15.57;;
11548;SDS011;61444;59.472;18.306;2022-08-19T06:23:02;19.10;;;14.27;;
11548;SDS011;61444;59.472;18.306;2022-08-19T06:25:10;16.87;;;14.73;;
11548;SDS011;61444;59.472;18.306;2022-08-19T06:27:21;21.97;;;14.87;;
11548;SDS011;61444;59.472;18.306;2022-08-19T06:29:30;18.50;;;14.47;;
11548;SDS011;61444;59.472;18.306;2022-08-19T06:31:40;17.53;;;13.90;;
11548;SDS011;61444;59.472;18.306;2022-08-19T06:33:49;17.20;;;14.10;;
11548;SDS011;61444;59.472;18.306;2022-08-19T06:35:58;18.73;;;14.20;;
11548;SDS011;61444;59.472;18.306;2022-08-19T06:38:06;22.07;;;14.53;;
11548;SDS011;61444;59.472;18.306;2022-08-19T06:40:15;20.53;;;13.70;;
11548;SDS011;61444;59.472;18.306;2022-08-19T06:42:25;18.83;;;13.77;;
11548;SDS011;61444;59.472;18.306;2022-08-19T06:44:34;17.57;;;13.73;;
11548;SDS011;61444;59.472;18.306;2022-08-19T06:46:48;16.57;;;12.57;;
11548;SDS011;61444;59.472;18.306;2022-08-19T06:49:00;17.67;;;12.70;;
11548;SDS011;61444;59.472;18.306;2022-08-19T06:51:08;17.17;;;12.67;;
11548;SDS011;61444;59.472;18.306;2022-08-19T06:53:17;17.80;;;11.77;;
11548;SDS011;61444;59.472;18.306;2022-08-19T06:55:26;17.33;;;12.17;;
11548;SDS011;61444;59.472;18.306;2022-08-19T06:57:40;16.07;;;12.03;;
11548;SDS011;61444;59.472;18.306;2022-08-19T06:59:49;14.27;;;11.47;;
11548;SDS011;61444;59.472;18.306;2022-08-19T07:01:57;14.37;;;11.47;;
11548;SDS011;61444;59.472;18.306;2022-08-19T07:04:07;14.20;;;11.50;;
11548;SDS011;61444;59.472;18.306;2022-08-19T07:06:18;12.60;;;11.30;;
11548;SDS011;61444;59.472;18.306;2022-08-19T07:08:47;13.23;;;11.10;;
11548;SDS011;61444;59.472;18.306;2022-08-19T07:10:56;13.60;;;10.67;;
11548;SDS011;61444;59.472;18.306;2022-08-19T07:13:06;14.17;;;11.63;;
11548;SDS011;61444;59.472;18.306;2022-08-19T07:15:15;15.27;;;11.63;;
11548;SDS011;61444;59.472;18.306;2022-08-19T07:17:24;11.50;;;9.97;;
11548;SDS011;61444;59.472;18.306;2022-08-19T07:19:33;12.93;;;10.43;;
11548;SDS011;61444;59.472;18.306;2022-08-19T07:21:42;12.73;;;10.40;;
11548;SDS011;61444;59.472;18.306;2022-08-19T07:23:53;15.07;;;10.33;;
11548;SDS011;61444;59.472;18.306;2022-08-19T07:26:04;12.07;;;10.60;;
11548;SDS011;61444;59.472;18.306;2022-08-19T07:28:15;18.47;;;10.70;;
11548;SDS011;61444;59.472;18.306;2022-08-19T07:30:30;12.30;;;10.73;;
11548;SDS011;61444;59.472;18.306;2022-08-19T07:32:40;14.70;;;11.00;;
11548;SDS011;61444;59.472;18.306;2022-08-19T07:34:48;11.30;;;10.17;;
11548;SDS011;61444;59.472;18.306;2022-08-19T07:36:57;15.07;;;10.10;;
11548;SDS011;61444;59.472;18.306;2022-08-19T07:39:06;11.53;;;10.10;;
11548;SDS011;61444;59.472;18.306;2022-08-19T07:41:16;12.67;;;10.27;;
11548;SDS011;61444;59.472;18.306;2022-08-19T07:43:26;12.53;;;11.10;;
11548;SDS011;61444;59.472;18.306;2022-08-19T07:45:40;15.37;;;10.67;;
11548;SDS011;61444;59.472;18.306;2022-08-19T07:47:49;14.23;;;10.90;;
11548;SDS011;61444;59.472;18.306;2022-08-19T07:49:58;11.47;;;10.17;;
11548;SDS011;61444;59.472;18.306;2022-08-19T07:52:07;13.97;;;10.07;;
11548;SDS011;61444;59.472;18.306;2022-08-19T07:54:16;14.40;;;10.00;;
11548;SDS011;61444;59.472;18.306;2022-08-19T07:56:25;13.00;;;10.03;;
11548;SDS011;61444;59.472;18.306;2022-08-19T07:58:36;13.23;;;10.03;;
11548;SDS011;61444;59.472;18.306;2022-08-19T08:00:46;11.50;;;9.73;;
11548;SDS011;61444;59.472;18.306;2022-08-19T08:02:55;15.67;;;9.43;;
11548;SDS011;61444;59.472;18.306;2022-08-19T08:05:04;12.23;;;8.80;;
11548;SDS011;61444;59.472;18.306;2022-08-19T08:07:30;13.77;;;9.30;;
11548;SDS011;61444;59.472;18.306;2022-08-19T08:09:56;13.60;;;9.70;;
11548;SDS011;61444;59.472;18.306;2022-08-19T08:12:09;15.23;;;10.07;;
11548;SDS011;61444;59.472;18.306;2022-08-19T08:14:41;14.03;;;9.43;;
11548;SDS011;61444;59.472;18.306;2022-08-19T08:16:52;11.27;;;9.13;;
11548;SDS011;61444;59.472;18.306;2022-08-19T08:19:01;11.07;;;9.00;;
11548;SDS011;61444;59.472;18.306;2022-08-19T08:21:19;12.77;;;9.27;;
11548;SDS011;61444;59.472;18.306;2022-08-19T08:23:28;12.40;;;8.23;;
11548;SDS011;61444;59.472;18.306;2022-08-19T08:25:36;9.30;;;8.40;;
11548;SDS011;61444;59.472;18.306;2022-08-19T08:27:45;12.37;;;8.50;;
11548;SDS011;61444;59.472;18.306;2022-08-19T08:30:00;12.47;;;8.40;;
11548;SDS011;61444;59.472;18.306;2022-08-19T08:32:08;13.30;;;8.53;;
11548;SDS011;61444;59.472;18.306;2022-08-19T08:34:20;11.10;;;8.47;;
11548;SDS011;61444;59.472;18.306;2022-08-19T08:36:28;13.00;;;8.77;;
11548;SDS011;61444;59.472;18.306;2022-08-19T08:38:40;9.40;;;8.50;;
11548;SDS011;61444;59.472;18.306;2022-08-19T08:40:50;9.87;;;7.50;;
11548;SDS011;61444;59.472;18.306;2022-08-19T08:43:03;9.70;;;8.20;;
11548;SDS011;61444;59.472;18.306;2022-08-19T08:45:18;8.77;;;7.73;;
11548;SDS011;61444;59.472;18.306;2022-08-19T08:47:29;11.77;;;7.50;;
11548;SDS011;61444;59.472;18.306;2022-08-19T08:49:40;9.03;;;7.80;;
11548;SDS011;61444;59.472;18.306;2022-08-19T08:51:51;12.33;;;7.80;;
11548;SDS011;61444;59.472;18.306;2022-08-19T08:54:07;12.27;;;7.50;;
11548;SDS011;61444;59.472;18.306;2022-08-19T08:56:16;9.53;;;7.30;;
11548;SDS011;61444;59.472;18.306;2022-08-19T08:58:26;8.17;;;7.33;;
11548;SDS011;61444;59.472;18.306;2022-08-19T09:00:39;9.93;;;7.67;;
11548;SDS011;61444;59.472;18.306;2022-08-19T09:02:48;8.23;;;7.43;;
11548;SDS011;61444;59.472;18.306;2022-08-19T09:04:57;11.37;;;7.33;;
11548;SDS011;61444;59.472;18.306;2022-08-19T09:07:12;9.73;;;6.93;;
11548;SDS011;61444;59.472;18.306;2022-08-19T09:09:40;10.47;;;7.17;;
11548;SDS011;61444;59.472;18.306;2022-08-19T09:11:55;8.10;;;7.23;;
11548;SDS011;61444;59.472;18.306;2022-08-19T09:14:07;8.47;;;7.47;;
11548;SDS011;61444;59.472;18.306;2022-08-19T09:16:36;10.77;;;6.90;;
11548;SDS011;61444;59.472;18.306;2022-08-19T09:18:47;8.07;;;7.03;;
11548;SDS011;61444;59.472;18.306;2022-08-19T09:20:58;10.13;;;6.80;;
11548;SDS011;61444;59.472;18.306;2022-08-19T09:23:07;11.47;;;7.00;;
11548;SDS011;61444;59.472;18.306;2022-08-19T09:25:17;12.97;;;7.70;;
11548;SDS011;61444;59.472;18.306;2022-08-19T09:27:35;10.70;;;6.83;;
11548;SDS011;61444;59.472;18.306;2022-08-19T09:29:48;10.13;;;7.20;;
11548;SDS011;61444;59.472;18.306;2022-08-19T09:32:01;11.30;;;7.03;;
11548;SDS011;61444;59.472;18.306;2022-08-19T09:34:31;9.13;;;6.73;;
11548;SDS011;61444;59.472;18.306;2022-08-19T09:36:49;12.67;;;7.00;;
11548;SDS011;61444;59.472;18.306;2022-08-19T09:39:00;10.50;;;6.87;;
11548;SDS011;61444;59.472;18.306;2022-08-19T09:41:09;9.53;;;7.87;;
11548;SDS011;61444;59.472;18.306;2022-08-19T09:43:20;8.07;;;7.27;;
11548;SDS011;61444;59.472;18.306;2022-08-19T09:45:39;12.37;;;6.73;;
11548;SDS011;61444;59.472;18.306;2022-08-19T09:47:50;9.30;;;6.70;;
11548;SDS011;61444;59.472;18.306;2022-08-19T09:50:00;9.87;;;7.07;;
11548;SDS011;61444;59.472;18.306;2022-08-19T09:52:09;9.03;;;6.87;;
11548;SDS011;61444;59.472;18.306;2022-08-19T09:54:18;12.13;;;7.00;;
11548;SDS011;61444;59.472;18.306;2022-08-19T09:56:31;12.33;;;7.30;;
11548;SDS011;61444;59.472;18.306;2022-08-19T09:58:40;11.30;;;7.07;;
11548;SDS011;61444;59.472;18.306;2022-08-19T10:00:50;11.00;;;7.50;;
11548;SDS011;61444;59.472;18.306;2022-08-19T10:03:01;11.17;;;6.80;;
11548;SDS011;61444;59.472;18.306;2022-08-19T10:05:12;13.63;;;7.50;;
11548;SDS011;61444;59.472;18.306;2022-08-19T10:07:38;8.87;;;7.13;;
11548;SDS011;61444;59.472;18.306;2022-08-19T10:09:47;8.03;;;7.23;;
11548;SDS011;61444;59.472;18.306;2022-08-19T10:11:55;8.53;;;7.03;;
11548;SDS011;61444;59.472;18.306;2022-08-19T10:14:08;10.47;;;7.10;;
11548;SDS011;61444;59.472;18.306;2022-08-19T10:16:17;9.97;;;6.70;;
11548;SDS011;61444;59.472;18.306;2022-08-19T10:18:32;11.07;;;6.57;;
11548;SDS011;61444;59.472;18.306;2022-08-19T10:20:41;8.77;;;6.97;;
11548;SDS011;61444;59.472;18.306;2022-08-19T10:22:50;12.60;;;6.63;;
11548;SDS011;61444;59.472;18.306;2022-08-19T10:24:58;13.07;;;7.00;;
11548;SDS011;61444;59.472;18.306;2022-08-19T10:27:07;11.53;;;6.63;;
11548;SDS011;61444;59.472;18.306;2022-08-19T10:29:21;9.50;;;6.80;;
11548;SDS011;61444;59.472;18.306;2022-08-19T10:31:38;9.73;;;6.33;;
11548;SDS011;61444;59.472;18.306;2022-08-19T10:34:08;10.93;;;7.27;;
11548;SDS011;61444;59.472;18.306;2022-08-19T10:36:33;9.00;;;7.03;;
11548;SDS011;61444;59.472;18.306;2022-08-19T10:39:02;9.17;;;7.23;;
11548;SDS011;61444;59.472;18.306;2022-08-19T10:41:11;7.60;;;6.80;;
11548;SDS011;61444;59.472;18.306;2022-08-19T10:43:20;10.17;;;6.77;;
11548;SDS011;61444;59.472;18.306;2022-08-19T10:45:29;8.90;;;6.63;;
11548;SDS011;61444;59.472;18.306;2022-08-19T10:47:38;10.03;;;7.53;;
11548;SDS011;61444;59.472;18.306;2022-08-19T10:49:49;10.57;;;6.80;;
11548;SDS011;61444;59.472;18.306;2022-08-19T10:52:17;9.90;;;7.20;;
11548;SDS011;61444;59.472;18.306;2022-08-19T10:54:44;9.70;;;6.50;;
11548;SDS011;61444;59.472;18.306;2022-08-19T10:57:14;8.47;;;7.27;;
11548;SDS011;61444;59.472;18.306;2022-08-19T10:59:23;11.93;;;6.83;;
11548;SDS011;61444;59.472;18.306;2022-08-19T11:01:39;11.97;;;6.90;;
11548;SDS011;61444;59.472;18.306;2022-08-19T11:03:48;7.13;;;6.53;;
11548;SDS011;61444;59.472;18.306;2022-08-19T11:05:59;7.70;;;6.87;;
11548;SDS011;61444;59.472;18.306;2022-08-19T11:08:07;10.70;;;7.20;;
11548;SDS011;61444;59.472;18.306;2022-08-19T11:10:29;11.10;;;7.67;;
11548;SDS011;61444;59.472;18.306;2022-08-19T11:12:38;10.57;;;7.73;;
11548;SDS011;61444;59.472;18.306;2022-08-19T11:14:47;9.93;;;7.40;;
11548;SDS011;61444;59.472;18.306;2022-08-19T11:16:56;7.93;;;7.13;;
11548;SDS011;61444;59.472;18.306;2022-08-19T11:19:05;9.90;;;7.43;;
11548;SDS011;61444;59.472;18.306;2022-08-19T11:21:17;11.77;;;7.13;;
11548;SDS011;61444;59.472;18.306;2022-08-19T11:23:26;9.73;;;7.57;;
11548;SDS011;61444;59.472;18.306;2022-08-19T11:25:37;12.20;;;7.00;;
11548;SDS011;61444;59.472;18.306;2022-08-19T11:27:46;9.20;;;7.97;;
11548;SDS011;61444;59.472;18.306;2022-08-19T11:29:57;9.70;;;7.33;;
11548;SDS011;61444;59.472;18.306;2022-08-19T11:32:06;9.03;;;7.00;;
11548;SDS011;61444;59.472;18.306;2022-08-19T11:34:16;8.73;;;7.40;;
11548;SDS011;61444;59.472;18.306;2022-08-19T11:36:26;11.73;;;8.13;;
11548;SDS011;61444;59.472;18.306;2022-08-19T11:38:35;9.70;;;6.97;;
11548;SDS011;61444;59.472;18.306;2022-08-19T11:40:44;10.60;;;7.60;;
11548;SDS011;61444;59.472;18.306;2022-08-19T11:42:53;9.93;;;7.90;;
11548;SDS011;61444;59.472;18.306;2022-08-19T11:45:05;10.57;;;7.57;;
11548;SDS011;61444;59.472;18.306;2022-08-19T11:47:14;14.30;;;7.83;;
11548;SDS011;61444;59.472;18.306;2022-08-19T11:49:22;9.93;;;7.10;;
11548;SDS011;61444;59.472;18.306;2022-08-19T11:51:32;10.83;;;8.23;;
11548;SDS011;61444;59.472;18.306;2022-08-19T11:53:41;10.77;;;7.97;;
11548;SDS011;61444;59.472;18.306;2022-08-19T11:55:49;12.60;;;7.57;;
11548;SDS011;61444;59.472;18.306;2022-08-19T11:58:00;12.57;;;7.50;;
11548;SDS011;61444;59.472;18.306;2022-08-19T12:00:09;10.07;;;7.27;;
11548;SDS011;61444;59.472;18.306;2022-08-19T12:02:18;8.87;;;7.00;;
11548;SDS011;61444;59.472;18.306;2022-08-19T12:04:28;11.40;;;7.30;;
11548;SDS011;61444;59.472;18.306;2022-08-19T12:06:38;8.53;;;7.30;;
11548;SDS011;61444;59.472;18.306;2022-08-19T12:08:48;10.60;;;7.97;;
11548;SDS011;61444;59.472;18.306;2022-08-19T12:10:56;8.70;;;7.50;;
11548;SDS011;61444;59.472;18.306;2022-08-19T12:13:07;9.87;;;7.77;;
11548;SDS011;61444;59.472;18.306;2022-08-19T12:15:15;8.43;;;7.50;;
11548;SDS011;61444;59.472;18.306;2022-08-19T12:17:24;10.67;;;7.40;;
11548;SDS011;61444;59.472;18.306;2022-08-19T12:19:33;8.67;;;7.73;;
11548;SDS011;61444;59.472;18.306;2022-08-19T12:21:43;8.67;;;7.47;;
11548;SDS011;61444;59.472;18.306;2022-08-19T12:23:51;9.40;;;7.70;;
11548;SDS011;61444;59.472;18.306;2022-08-19T12:26:01;8.33;;;7.53;;
11548;SDS011;61444;59.472;18.306;2022-08-19T12:28:09;9.53;;;7.67;;
11548;SDS011;61444;59.472;18.306;2022-08-19T12:30:19;11.80;;;7.90;;
11548;SDS011;61444;59.472;18.306;2022-08-19T12:32:28;9.60;;;6.80;;
11548;SDS011;61444;59.472;18.306;2022-08-19T12:34:36;10.60;;;7.97;;
11548;SDS011;61444;59.472;18.306;2022-08-19T12:36:46;9.10;;;7.33;;
11548;SDS011;61444;59.472;18.306;2022-08-19T12:38:57;11.67;;;7.63;;
11548;SDS011;61444;59.472;18.306;2022-08-19T12:41:06;10.40;;;7.50;;